Port Aransas, TX

2:07 AM CST on December 08, 2016 (GMT -0600)
Port Aransas | | Change Station
Active Advisory: Wind Advisory

Elev 7 ft 27.81 °N, 97.09 °W | Updated 12 minutes ago

Overcast
Overcast
58 °F
Feels Like 58 °F
N
22
Wind Variable Wind from NNE
Gusts 28 mph

Today
High -- | Low -- °F
--% Chance of Precip.
Yesterday
High -- | Low -- °F
Precip. -- in
Pressure 30.10 in
Visibility 10.0 miles
Clouds Overcast 800 ft
Dew Point 56 °F
Humidity 94%
Rainfall 0.00 in
Snow Depth Not available.
7:07 AM 5:33 PM
First Quarter, 61% visible
METAR KRAS 080755Z AUTO 02019G24KT 10SM OVC008 15/14 A3010 RMK AO2 LTG DSNT E T01460136
Pressure 30.10 in
Visibility 10.0 miles
Clouds Overcast 800 ft
Dew Point 56 °F
Humidity 94%
Rainfall 0.00 in
Snow Depth Not available.
7:07 AM 5:33 PM
First Quarter, 61% visible
METAR KRAS 080755Z AUTO 02019G24KT 10SM OVC008 15/14 A3010 RMK AO2 LTG DSNT E T01460136

10-Day Weather Forecast

Almanac

Astronomy

Dec. 08, 2016 Rise Set
Actual Time
Civil Twilight
Nautical Twilight
Astronomical Twilight
Moon
Length of Visible Light
Length of Day
Tomorrow will be .
, % of the Moon is Illuminated

Today's Extremes

State Highs State Lows

Community

WunderPhotos

Upload Photos

1,956,259 photos uploaded!

WunderBlog® & News

Nearby

Air Quality

  Air Quality AQ Index Pollutant
Not available.

Snow Depth

Station Depth Elevation

Earthquake Activity

City Distance Mag. Time & Date
Minimum magnitude displayed is 2.5.

Coastal Water Temperatures

Place Temperature

Stations

Nearby Weather Stations

Station Location Temp. Windchill Dew Point Humidity Wind Precip. Elev Updated Type
                   

Watches & Warnings

Wind Advisory
Issued: 11:02 PM CST Dec. 7, 2016 – National Weather Service

... Wind Advisory remains in effect from 6 am to 6 PM CST
Thursday...

* timing... gusty winds develop by 6am Thursday morning.

* Winds... sustained winds north 25 to 30 mph with gusts near 40
mph are expected.

* Impacts... loose items will likely be blown around in yards...
parking lots... and on streets. Secure items before the onset
of strong winds if possible. Driving can become difficult...
especially on east-west roads with a strong Crosswinds. Use
extra caution... especially if driving a high profile vehicle.

Precautionary/preparedness actions...

A Wind Advisory means that sustained winds of 30 mph or greater...
or wind gusts around 40 mph or greater are expected. Winds this
strong can make driving difficult... especially for high profile
vehicles. Use extra caution.



Lk